Time;durP1;ratioP1;P1;durP2;ratioP2;P2;SDS_P1;SDS_P2;PMS_P1;PMS_P2;Temp;Humidity;BMP_temperature;BMP_pressure;BME280_temperature;BME280_humidity;BME280_pressure;Samples;Min_cycle;Max_cycle;Signal;HPM_P1;HPM_P2
2022/03/21 00:00:38;;;;;;;54.42;42.80;;;4.60;99.90;;;;;;5054928;28;20405;-77
2022/03/21 00:03:09;;;;;;;61.97;47.75;;;4.60;99.90;;;;;;5054671;28;20112;-76
2022/03/21 00:05:35;;;;;;;54.78;45.70;;;4.60;99.90;;;;;;5053675;28;20045;-77
2022/03/21 00:08:02;;;;;;;58.75;44.85;;;4.60;99.90;;;;;;5054698;28;20049;-77
2022/03/21 00:10:30;;;;;;;56.67;45.30;;;4.50;99.90;;;;;;5054501;28;20037;-77
2022/03/21 00:12:56;;;;;;;54.38;44.00;;;4.50;99.90;;;;;;5037948;28;20432;-77
2022/03/21 00:15:23;;;;;;;60.13;45.60;;;4.40;99.90;;;;;;5053472;28;20053;-77
2022/03/21 00:17:49;;;;;;;57.10;44.67;;;4.40;99.90;;;;;;5055105;28;20269;-77
2022/03/21 00:20:15;;;;;;;59.40;49.27;;;4.40;99.90;;;;;;5054876;28;20136;-77
2022/03/21 00:22:42;;;;;;;62.58;46.10;;;4.30;99.90;;;;;;5053961;28;20279;-77
2022/03/21 00:25:08;;;;;;;60.25;47.92;;;4.30;99.90;;;;;;5053412;28;20405;-77
2022/03/21 00:27:38;;;;;;;62.60;50.78;;;4.30;99.90;;;;;;5054332;28;20056;-77
2022/03/21 00:30:05;;;;;;;63.08;48.65;;;4.30;99.90;;;;;;5054623;28;20037;-77
2022/03/21 00:32:31;;;;;;;60.85;49.67;;;;;;;;;;5054283;28;20079;-77
2022/03/21 00:34:58;;;;;;;61.70;47.25;;;;;;;;;;5053305;28;20045;-77
2022/03/21 00:37:24;;;;;;;67.97;52.25;;;;;;;;;;5053297;28;20140;-78
2022/03/21 00:39:53;;;;;;;60.45;47.45;;;;;;;;;;5054469;28;20081;-77
2022/03/21 00:42:21;;;;;;;61.78;48.20;;;;;;;;;;5054331;28;20044;-77
2022/03/21 00:44:47;;;;;;;62.97;48.25;;;;;;;;;;5054020;28;20085;-77
2022/03/21 00:47:15;;;;;;;64.18;50.70;;;;;;;;;;5054292;28;20048;-77
2022/03/21 00:49:41;;;;;;;61.33;47.92;;;;;;;;;;5053985;28;20060;-77
2022/03/21 00:52:08;;;;;;;58.63;46.80;;;;;;;;;;5054263;28;20053;-77
2022/03/21 00:54:34;;;;;;;60.72;49.50;;;;;;;;;;5053895;28;20071;-78
2022/03/21 00:57:00;;;;;;;59.00;48.35;;;;;;;;;;5054068;28;20055;-77
2022/03/21 00:59:26;;;;;;;56.65;46.75;;;;;;;;;;5053754;28;20078;-78
2022/03/21 01:01:53;;;;;;;61.70;48.40;;;;;;;;;;5054051;28;20111;-77
2022/03/21 01:04:19;;;;;;;58.83;48.10;;;;;;;;;;5054042;28;20060;-77
2022/03/21 01:06:45;;;;;;;61.70;48.33;;;;;;;;;;5052480;28;20460;-77
2022/03/21 01:09:12;;;;;;;61.65;49.65;;;4.10;99.90;;;;;;5053735;28;20045;-77
2022/03/21 01:11:38;;;;;;;60.60;48.00;;;4.10;99.90;;;;;;5053534;28;20400;-77
2022/03/21 01:14:03;;;;;;;68.07;51.73;;;4.10;99.90;;;;;;5052875;28;20049;-77
2022/03/21 01:16:29;;;;;;;59.13;46.87;;;4.00;99.90;;;;;;5053418;28;20295;-76
2022/03/21 01:18:55;;;;;;;64.90;48.73;;;4.00;99.90;;;;;;5053424;28;20098;-77
2022/03/21 01:21:21;;;;;;;63.17;50.00;;;4.00;99.90;;;;;;5053659;28;20044;-76
2022/03/21 01:23:46;;;;;;;63.73;51.57;;;3.90;99.90;;;;;;5053264;28;20052;-77
2022/03/21 01:26:12;;;;;;;67.67;50.03;;;3.90;99.90;;;;;;5053619;28;20128;-76
2022/03/21 01:28:38;;;;;;;61.07;47.03;;;3.90;99.90;;;;;;5052106;28;20424;-77
2022/03/21 01:31:03;;;;;;;64.57;51.40;;;3.90;99.90;;;;;;5053398;28;20041;-77
2022/03/21 01:33:30;;;;;;;59.07;47.03;;;3.90;99.90;;;;;;5052339;28;20053;-79
2022/03/21 01:35:57;;;;;;;67.93;51.65;;;3.80;99.90;;;;;;5053596;28;20045;-77
2022/03/21 01:38:22;;;;;;;64.28;48.47;;;3.90;99.90;;;;;;5053377;28;20044;-77
2022/03/21 01:40:48;;;;;;;62.43;47.37;;;3.80;99.90;;;;;;5053035;28;20045;-77
2022/03/21 01:43:14;;;;;;;54.33;45.70;;;3.90;99.90;;;;;;5053255;28;20090;-77
2022/03/21 01:45:40;;;;;;;61.53;49.60;;;3.80;99.90;;;;;;5053326;28;20060;-77
2022/03/21 01:48:07;;;;;;;59.70;48.70;;;3.90;99.90;;;;;;5052961;28;20045;-77
2022/03/21 01:50:33;;;;;;;61.65;46.88;;;3.90;99.90;;;;;;5052828;28;20170;-78
2022/03/21 01:55:43;;;;;;;60.95;46.28;;;3.80;99.90;;;;;;5052981;28;20480;-77
2022/03/21 01:58:11;;;;;;;60.63;47.53;;;3.90;99.90;;;;;;5052970;28;20512;-77
2022/03/21 02:00:37;;;;;;;58.22;46.90;;;3.90;99.90;;;;;;5052825;28;20044;-77
2022/03/21 02:03:04;;;;;;;61.92;49.88;;;3.90;99.90;;;;;;5051348;28;20061;-77
2022/03/21 02:05:31;;;;;;;59.38;48.53;;;3.80;99.90;;;;;;5052941;28;20053;-77
2022/03/21 02:07:57;;;;;;;62.10;47.45;;;3.80;99.90;;;;;;5052261;28;20489;-77
2022/03/21 02:10:22;;;;;;;60.73;49.40;;;3.80;99.90;;;;;;5052855;28;20041;-76
2022/03/21 02:12:48;;;;;;;58.33;47.33;;;3.80;99.90;;;;;;5051379;28;20048;-77
2022/03/21 02:15:14;;;;;;;59.47;46.37;;;3.80;99.90;;;;;;5052686;28;20570;-77
2022/03/21 02:17:45;;;;;;;60.20;47.17;;;3.80;99.90;;;;;;5051294;28;20102;-78
2022/03/21 02:20:11;;;;;;;60.38;47.60;;;3.90;99.90;;;;;;5053059;28;20064;-77
2022/03/21 02:22:48;;;;;;;56.42;46.05;;;3.90;99.90;;;;;;5052530;28;20053;-77
2022/03/21 02:25:28;;;;;;;57.65;46.03;;;3.90;99.90;;;;;;5052799;28;20070;-77
2022/03/21 02:27:58;;;;;;;59.45;44.60;;;3.80;99.90;;;;;;5051566;28;20053;-77
2022/03/21 02:30:26;;;;;;;55.10;45.72;;;3.80;99.90;;;;;;5052097;28;20547;-77
2022/03/21 02:32:52;;;;;;;55.53;44.72;;;3.80;99.90;;;;;;5052220;28;20103;-77
2022/03/21 02:35:19;;;;;;;60.13;46.83;;;3.70;99.90;;;;;;5052725;28;20080;-77
2022/03/21 02:37:46;;;;;;;58.08;46.60;;;3.60;99.90;;;;;;5050918;28;20283;-78
2022/03/21 02:40:13;;;;;;;62.17;46.50;;;3.70;99.90;;;;;;5052372;28;20083;-77
2022/03/21 02:42:38;;;;;;;58.40;47.55;;;3.70;99.90;;;;;;5052016;28;20481;-78
2022/03/21 02:45:06;;;;;;;62.67;49.10;;;3.70;99.90;;;;;;5054218;28;20119;-77
2022/03/21 02:47:32;;;;;;;58.17;46.72;;;3.70;99.90;;;;;;5056566;28;20283;-77
2022/03/21 02:49:59;;;;;;;61.63;48.20;;;3.60;99.90;;;;;;5054838;28;20389;-77
2022/03/21 02:52:28;;;;;;;57.08;46.90;;;3.60;99.90;;;;;;5056234;28;20103;-77
2022/03/21 02:54:54;;;;;;;59.63;47.00;;;3.70;99.90;;;;;;5055866;28;20094;-77
2022/03/21 02:57:19;;;;;;;61.57;48.07;;;3.60;99.90;;;;;;5055048;28;20556;-77
2022/03/21 02:59:45;;;;;;;61.73;50.00;;;3.60;99.90;;;;;;5055837;28;20045;-78
2022/03/21 03:02:11;;;;;;;62.67;49.43;;;3.70;99.90;;;;;;5055980;28;20095;-77
2022/03/21 03:04:36;;;;;;;61.17;50.40;;;3.60;99.90;;;;;;5056330;28;20088;-77
2022/03/21 03:07:02;;;;;;;63.77;50.93;;;3.60;99.90;;;;;;5055904;28;20048;-78
2022/03/21 03:09:28;;;;;;;63.57;50.23;;;3.60;99.90;;;;;;5055238;28;20049;-77
2022/03/21 03:11:54;;;;;;;65.47;53.50;;;3.60;99.90;;;;;;5055795;28;20047;-78
2022/03/21 03:14:19;;;;;;;63.90;49.57;;;3.60;99.90;;;;;;5055134;28;20057;-78
2022/03/21 03:16:45;;;;;;;66.00;51.50;;;3.50;99.90;;;;;;5055722;28;20044;-78
2022/03/21 03:19:11;;;;;;;65.53;50.23;;;3.60;99.90;;;;;;5055338;28;20469;-78
2022/03/21 03:21:43;;;;;;;72.82;55.42;;;3.60;99.90;;;;;;5055561;28;20618;-78
2022/03/21 03:24:10;;;;;;;63.88;51.00;;;3.60;99.90;;;;;;5055526;28;20503;-78
2022/03/21 03:26:36;;;;;;;63.83;50.03;;;3.60;99.90;;;;;;5038349;28;20447;-78
2022/03/21 03:29:02;;;;;;;67.80;50.07;;;3.60;99.90;;;;;;5055771;28;20045;-78
2022/03/21 03:31:28;;;;;;;71.00;53.90;;;3.60;99.90;;;;;;5055458;28;20052;-77
2022/03/21 03:33:54;;;;;;;63.35;51.28;;;3.60;99.90;;;;;;5055118;28;20059;-78
2022/03/21 03:36:21;;;;;;;72.47;56.05;;;3.50;99.90;;;;;;5055494;28;20053;-77
2022/03/21 03:38:48;;;;;;;73.28;54.40;;;3.50;99.90;;;;;;5055095;28;20056;-77
2022/03/21 03:41:15;;;;;;;76.68;55.97;;;3.50;99.90;;;;;;5055588;28;20504;-77
2022/03/21 03:43:43;;;;;;;72.00;54.42;;;3.50;99.90;;;;;;5055441;28;20049;-77
2022/03/21 03:46:09;;;;;;;74.22;56.05;;;3.50;99.90;;;;;;5055420;28;20052;-77
2022/03/21 03:48:35;;;;;;;68.85;52.85;;;3.50;99.90;;;;;;5055438;28;20053;-77
2022/03/21 03:51:03;;;;;;;71.82;53.38;;;3.60;99.90;;;;;;5036965;28;20504;-78
2022/03/21 03:53:29;;;;;;;75.32;53.75;;;3.50;99.90;;;;;;5054961;28;20362;-77
2022/03/21 03:55:55;;;;;;;76.10;58.00;;;3.50;99.90;;;;;;5056644;28;20052;-77
2022/03/21 03:58:21;;;;;;;68.97;52.37;;;3.60;99.90;;;;;;5053450;28;20497;-77
2022/03/21 04:00:47;;;;;;;64.80;50.87;;;3.50;99.90;;;;;;5054974;28;20288;-78
2022/03/21 04:05:57;;;;;;;75.78;54.10;;;3.50;99.90;;;;;;5054306;28;20489;-77
2022/03/21 04:08:23;;;;;;;68.57;51.80;;;3.50;99.90;;;;;;5054936;28;20037;-77
2022/03/21 04:10:49;;;;;;;69.25;51.88;;;3.50;99.90;;;;;;5054293;28;20049;-78
2022/03/21 04:13:15;;;;;;;65.57;49.77;;;3.50;99.90;;;;;;5053816;28;20041;-77
2022/03/21 04:15:41;;;;;;;67.03;49.27;;;3.50;99.90;;;;;;5054779;28;20052;-77
2022/03/21 04:18:07;;;;;;;73.23;54.10;;;3.50;99.90;;;;;;5054471;28;20056;-77
2022/03/21 04:20:33;;;;;;;61.87;49.23;;;3.50;99.90;;;;;;5053443;28;20468;-77
2022/03/21 04:23:00;;;;;;;59.83;47.00;;;3.50;99.90;;;;;;5053234;28;20049;-78
2022/03/21 04:25:26;;;;;;;63.25;46.85;;;3.60;99.90;;;;;;5054987;28;20065;-77
2022/03/21 04:27:52;;;;;;;62.50;48.80;;;3.50;99.90;;;;;;5053384;28;20526;-78
2022/03/21 04:30:18;;;;;;;65.67;49.53;;;3.50;99.90;;;;;;5053495;28;20045;-77
2022/03/21 04:32:44;;;;;;;60.58;46.70;;;3.50;99.90;;;;;;5054559;28;20067;-77
2022/03/21 04:35:11;;;;;;;55.93;44.93;;;3.50;99.90;;;;;;5054288;28;20136;-78
2022/03/21 04:37:37;;;;;;;57.75;45.50;;;3.50;99.90;;;;;;5054500;28;20084;-77
2022/03/21 04:40:05;;;;;;;54.90;44.08;;;3.50;99.90;;;;;;5052913;28;20045;-77
2022/03/21 04:42:31;;;;;;;54.83;43.05;;;3.50;99.90;;;;;;5054327;28;20048;-77
2022/03/21 04:44:56;;;;;;;55.08;43.58;;;3.40;99.90;;;;;;5054045;28;20044;-77
2022/03/21 04:47:22;;;;;;;57.63;43.23;;;3.40;99.90;;;;;;5054295;28;20393;-77
2022/03/21 04:49:48;;;;;;;56.07;44.57;;;3.40;99.90;;;;;;5054308;28;20041;-77
2022/03/21 04:52:14;;;;;;;60.00;43.83;;;3.40;99.90;;;;;;5052593;28;20094;-77
2022/03/21 04:54:40;;;;;;;60.57;41.97;;;3.30;99.90;;;;;;5053021;28;20128;-77
2022/03/21 04:57:08;;;;;;;55.35;43.58;;;3.40;99.90;;;;;;5052753;28;20052;-77
2022/03/21 04:59:34;;;;;;;55.05;40.67;;;3.30;99.90;;;;;;5053829;28;20053;-77
2022/03/21 05:02:01;;;;;;;51.97;40.97;;;3.30;99.90;;;;;;5052218;28;20060;-77
2022/03/21 05:04:27;;;;;;;54.75;43.20;;;3.30;99.90;;;;;;5052484;28;20061;-77
2022/03/21 05:06:54;;;;;;;51.97;41.57;;;3.20;99.90;;;;;;5052667;28;20124;-78
2022/03/21 05:09:20;;;;;;;54.80;41.88;;;3.20;99.90;;;;;;5052124;28;20287;-77
2022/03/21 05:11:46;;;;;;;51.05;41.10;;;3.20;99.90;;;;;;5053951;28;20049;-77
2022/03/21 05:14:11;;;;;;;52.80;41.57;;;3.20;99.90;;;;;;5052460;28;20398;-77
2022/03/21 05:16:38;;;;;;;53.50;39.37;;;3.20;99.90;;;;;;5053817;28;20076;-77
2022/03/21 05:19:04;;;;;;;52.05;39.63;;;3.10;99.90;;;;;;5052336;28;20088;-78
2022/03/21 05:21:30;;;;;;;49.63;37.90;;;3.10;99.90;;;;;;5053660;28;20044;-77
2022/03/21 05:32:09;;;;;;;46.50;37.63;;;3.10;99.90;;;;;;5053275;28;20049;-77
2022/03/21 05:37:18;;;;;;;50.83;37.95;;;3.00;99.90;;;;;;5053077;28;20421;-78
2022/03/21 05:42:28;;;;;;;52.28;39.92;;;3.00;99.90;;;;;;5053691;28;20060;-77
2022/03/21 05:44:54;;;;;;;48.37;38.10;;;3.00;99.90;;;;;;5052134;28;20481;-77
2022/03/21 05:47:20;;;;;;;52.90;38.43;;;3.00;99.90;;;;;;5052949;28;20049;-78
2022/03/21 05:49:46;;;;;;;48.25;37.80;;;3.00;99.90;;;;;;5053150;28;20049;-78
2022/03/21 05:52:11;;;;;;;51.60;37.03;;;3.10;99.90;;;;;;5052867;28;20480;-77
2022/03/21 05:54:37;;;;;;;49.27;37.33;;;3.10;99.90;;;;;;5051873;28;20132;-77
2022/03/21 05:57:03;;;;;;;46.93;37.27;;;3.10;99.90;;;;;;5052834;28;20033;-78
2022/03/21 06:02:16;;;;;;;44.35;36.22;;;3.10;99.90;;;;;;5054810;28;20053;-77
2022/03/21 06:04:42;;;;;;;48.85;36.92;;;3.10;99.90;;;;;;5053344;28;20045;-78
2022/03/21 06:07:10;;;;;;;51.35;37.63;;;3.10;99.90;;;;;;5052643;28;20041;-78
2022/03/21 06:09:36;;;;;;;51.90;37.58;;;3.10;99.90;;;;;;5051651;28;20045;-78
2022/03/21 06:12:02;;;;;;;51.23;38.83;;;3.20;99.90;;;;;;5052561;28;20198;-77
2022/03/21 06:14:27;;;;;;;44.33;35.70;;;3.20;99.90;;;;;;5051752;28;20286;-78
2022/03/21 06:16:53;;;;;;;47.83;36.90;;;3.20;99.90;;;;;;5052684;28;20131;-78
2022/03/21 06:19:19;;;;;;;47.10;36.53;;;3.20;99.90;;;;;;5052167;28;20041;-78
2022/03/21 06:21:44;;;;;;;45.93;36.73;;;3.30;99.90;;;;;;5053083;28;20052;-77
2022/03/21 06:24:13;;;;;;;44.90;35.57;;;3.30;99.90;;;;;;5052466;28;20541;-77
2022/03/21 06:26:40;;;;;;;46.97;34.63;;;3.40;99.90;;;;;;5052705;28;20098;-78
2022/03/21 06:29:06;;;;;;;47.72;36.22;;;3.40;99.90;;;;;;5052439;28;20084;-78
2022/03/21 06:31:31;;;;;;;47.23;34.93;;;3.40;99.90;;;;;;5052320;28;20101;-78
2022/03/21 06:33:57;;;;;;;44.87;35.70;;;3.40;99.90;;;;;;5052694;28;20052;-78
2022/03/21 06:36:23;;;;;;;46.70;36.63;;;3.50;99.90;;;;;;5052371;28;20048;-77
2022/03/21 06:38:48;;;;;;;46.63;35.97;;;3.50;99.90;;;;;;5052623;28;20124;-77
2022/03/21 06:41:15;;;;;;;50.70;37.13;;;3.50;99.90;;;;;;5052402;28;20436;-78
2022/03/21 06:43:40;;;;;;;43.90;35.10;;;3.60;99.90;;;;;;5051374;28;20476;-78
2022/03/21 06:46:06;;;;;;;44.37;33.63;;;3.60;99.90;;;;;;5052251;28;20059;-78
2022/03/21 06:48:34;;;;;;;52.50;38.07;;;3.70;99.90;;;;;;5052202;28;20045;-77
2022/03/21 06:51:00;;;;;;;44.33;35.88;;;3.70;99.90;;;;;;5051218;28;20473;-77
2022/03/21 06:53:25;;;;;;;47.27;36.90;;;3.80;99.90;;;;;;5052295;28;20049;-77
2022/03/21 06:55:51;;;;;;;48.03;36.67;;;3.80;99.90;;;;;;5051448;28;20045;-77
2022/03/21 06:58:17;;;;;;;48.77;37.67;;;3.90;99.90;;;;;;5051219;28;20045;-77
2022/03/21 07:00:45;;;;;;;45.60;36.00;;;4.00;99.90;;;;;;5052454;28;20477;-77
2022/03/21 07:03:11;;;;;;;47.67;37.08;;;4.00;99.90;;;;;;5052192;28;20386;-77
2022/03/21 07:05:38;;;;;;;42.38;33.78;;;4.20;99.90;;;;;;5051399;28;20060;-77
2022/03/21 07:08:04;;;;;;;43.25;35.13;;;5.30;99.90;;;;;;5051067;28;20068;-77
2022/03/21 07:10:34;;;;;;;43.15;35.05;;;5.30;99.90;;;;;;5052459;28;20118;-77
2022/03/21 07:13:01;;;;;;;39.25;33.45;;;6.60;99.90;;;;;;5052476;28;20049;-77
2022/03/21 07:15:28;;;;;;;37.40;30.48;;;8.30;99.90;;;;;;5050950;28;20045;-78
2022/03/21 07:17:55;;;;;;;36.85;31.83;;;8.90;99.90;;;;;;5051217;28;20448;-78
2022/03/21 07:20:22;;;;;;;35.60;29.60;;;9.90;99.90;;;;;;5051956;28;20397;-78
2022/03/21 07:22:48;;;;;;;31.50;27.00;;;;;;;;;;5052188;28;20048;-78
2022/03/21 07:25:13;;;;;;;34.27;28.23;;;11.90;92.50;;;;;;5051613;28;20505;-78
2022/03/21 07:27:44;;;;;;;30.27;27.07;;;12.20;99.90;;;;;;5052148;28;20314;-78
2022/03/21 07:30:12;;;;;;;32.37;28.03;;;12.90;99.90;;;;;;5051877;28;20044;-78
2022/03/21 07:32:38;;;;;;;32.23;25.90;;;13.60;97.60;;;;;;5053931;28;20779;-78
2022/03/21 07:35:05;;;;;;;30.00;26.03;;;14.20;95.70;;;;;;5055852;28;20284;-78
2022/03/21 07:37:50;;;;;;;26.63;23.40;;;14.60;92.40;;;;;;5054113;28;20330;-78
2022/03/21 07:40:16;;;;;;;29.38;23.52;;;15.10;73.00;;;;;;5055284;28;20790;-78
2022/03/21 07:42:44;;;;;;;26.03;22.30;;;15.00;85.60;;;;;;5055572;28;20051;-78
2022/03/21 07:47:55;;;;;;;26.35;21.90;;;13.60;83.30;;;;;;5054669;28;20291;-77
2022/03/21 07:50:23;;;;;;;26.50;21.43;;;12.80;85.90;;;;;;5055156;28;20041;-78
2022/03/21 07:52:50;;;;;;;25.17;20.13;;;12.20;85.90;;;;;;5055181;28;20809;-78
2022/03/21 07:55:16;;;;;;;24.50;18.93;;;11.80;89.80;;;;;;5055098;28;20336;-78
2022/03/21 07:57:42;;;;;;;25.70;19.67;;;11.40;90.80;;;;;;5055330;28;20754;-79
2022/03/21 08:00:13;;;;;;;23.73;20.10;;;10.90;92.70;;;;;;5055239;28;20333;-78
2022/03/21 08:02:39;;;;;;;22.83;19.50;;;10.90;93.10;;;;;;5055634;28;20111;-78
2022/03/21 08:05:06;;;;;;;24.67;20.23;;;10.70;94.10;;;;;;5055378;28;20295;-78
2022/03/21 08:07:32;;;;;;;26.53;19.63;;;10.60;95.00;;;;;;5056409;28;20295;-78
2022/03/21 08:09:58;;;;;;;29.57;20.23;;;10.60;96.00;;;;;;5055312;28;20299;-78
2022/03/21 08:12:24;;;;;;;25.63;21.33;;;10.60;96.20;;;;;;5054704;28;20283;-74
2022/03/21 08:14:51;;;;;;;27.40;22.17;;;10.60;95.90;;;;;;5054983;28;20071;-77
2022/03/21 08:17:18;;;;;;;29.23;21.70;;;10.60;96.10;;;;;;5054761;28;20049;-78
2022/03/21 08:19:44;;;;;;;28.70;22.70;;;;;;;;;;5055007;28;20275;-77
2022/03/21 08:22:10;;;;;;;30.73;23.60;;;;;;;;;;5055169;28;20627;-78
2022/03/21 08:24:36;;;;;;;34.27;22.33;;;10.30;97.30;;;;;;5053236;28;20306;-79
2022/03/21 08:27:04;;;;;;;30.97;23.00;;;10.30;97.50;;;;;;5054762;28;20276;-78
2022/03/21 08:29:31;;;;;;;29.83;22.87;;;10.30;97.70;;;;;;5054336;28;20055;-78
2022/03/21 08:31:56;;;;;;;28.73;23.67;;;10.30;98.70;;;;;;5054650;28;20367;-81
2022/03/21 08:34:22;;;;;;;30.47;22.97;;;10.30;98.90;;;;;;5054345;28;20362;-78
2022/03/21 08:36:48;;;;;;;30.53;23.70;;;10.20;98.60;;;;;;5054783;28;20106;-79
2022/03/21 08:39:15;;;;;;;32.83;24.13;;;;;;;;;;5054433;28;20041;-79
2022/03/21 08:41:40;;;;;;;27.47;22.60;;;10.20;98.90;;;;;;5054539;28;20284;-78
2022/03/21 08:44:06;;;;;;;32.57;22.67;;;10.20;99.90;;;;;;5054157;28;20686;-78
2022/03/21 08:46:33;;;;;;;31.67;22.07;;;10.10;99.90;;;;;;5054124;28;20106;-78
2022/03/21 08:51:43;;;;;;;27.73;22.20;;;10.10;99.90;;;;;;5054425;28;20311;-78
2022/03/21 08:54:10;;;;;;;28.53;20.57;;;;;;;;;;5054246;28;20087;-78
2022/03/21 08:56:36;;;;;;;27.37;20.90;;;10.00;99.30;;;;;;5052691;28;20053;-79
2022/03/21 08:59:02;;;;;;;29.30;20.87;;;10.00;99.50;;;;;;5036366;28;20383;-78
2022/03/21 09:01:29;;;;;;;29.33;23.10;;;10.00;99.90;;;;;;5052776;28;20037;-78
2022/03/21 09:04:02;;;;;;;25.00;20.20;;;10.00;99.90;;;;;;5054032;28;20283;-78
2022/03/21 09:06:28;;;;;;;25.13;18.87;;;10.00;99.90;;;;;;5052364;28;20353;-78
2022/03/21 09:08:54;;;;;;;25.10;20.00;;;10.00;99.90;;;;;;5052705;28;20279;-78
2022/03/21 09:11:19;;;;;;;28.20;20.43;;;10.00;99.90;;;;;;5052418;28;20700;-78
2022/03/21 09:13:49;;;;;;;25.43;20.80;;;9.90;99.90;;;;;;5053875;28;20040;-77
2022/03/21 09:16:15;;;;;;;27.10;19.60;;;10.00;99.90;;;;;;5036018;28;20438;-77
2022/03/21 09:18:42;;;;;;;24.53;19.23;;;10.00;99.90;;;;;;5052251;28;20287;-78
2022/03/21 09:21:09;;;;;;;24.97;18.00;;;10.10;99.90;;;;;;5053798;28;20276;-78
2022/03/21 09:23:35;;;;;;;23.37;18.83;;;10.10;99.90;;;;;;5053314;28;20374;-76
2022/03/21 09:26:03;;;;;;;24.77;18.83;;;10.10;99.70;;;;;;5052938;28;20288;-78
2022/03/21 09:28:30;;;;;;;21.50;17.23;;;10.20;98.70;;;;;;5053485;28;20290;-80
2022/03/21 09:30:55;;;;;;;24.60;19.20;;;10.20;98.50;;;;;;5052278;28;20300;-78
2022/03/21 09:33:22;;;;;;;25.10;18.23;;;10.20;98.40;;;;;;5051913;28;20283;-78
2022/03/21 09:35:48;;;;;;;25.50;18.83;;;10.20;98.30;;;;;;5053528;28;20048;-77
2022/03/21 09:38:15;;;;;;;21.60;17.80;;;10.20;97.30;;;;;;5049018;28;20372;-78
2022/03/21 09:40:42;;;;;;;23.43;17.13;;;10.30;96.50;;;;;;5041673;28;20303;-76
2022/03/21 09:43:12;;;;;;;26.07;17.70;;;10.50;95.20;;;;;;5042746;28;20280;-73
2022/03/21 09:45:39;;;;;;;22.87;17.47;;;10.60;94.30;;;;;;5038746;28;20341;-76
2022/03/21 09:48:09;;;;;;;23.60;18.67;;;10.60;94.10;;;;;;5041687;28;20282;-77
2022/03/21 09:50:40;;;;;;;22.73;17.77;;;10.70;93.90;;;;;;5035110;28;20370;-73
2022/03/21 09:53:14;;;;;;;23.67;17.70;;;10.60;93.00;;;;;;5033378;28;20288;-74
2022/03/21 09:55:41;;;;;;;25.40;18.53;;;10.60;92.50;;;;;;5032306;28;20272;-75
2022/03/21 09:58:09;;;;;;;22.60;17.13;;;10.60;92.50;;;;;;5033098;28;20280;-77
2022/03/21 10:00:37;;;;;;;26.13;19.27;;;10.60;92.60;;;;;;5032885;28;20288;-78
2022/03/21 10:03:03;;;;;;;24.40;18.23;;;10.60;92.60;;;;;;5032924;28;20784;-79
2022/03/21 10:05:35;;;;;;;22.27;18.60;;;10.70;91.60;;;;;;5031649;28;20284;-86
2022/03/21 10:08:15;;;;;;;21.87;18.07;;;10.70;90.80;;;;;;5033056;28;20383;-87
2022/03/21 10:11:10;;;;;;;24.30;18.50;;;10.90;89.70;;;;;;5033308;28;20387;-89
2022/03/21 10:13:38;;;;;;;23.97;17.60;;;11.00;88.60;;;;;;5038540;28;20299;-89
2022/03/21 10:16:10;;;;;;;23.70;17.67;;;11.10;87.50;;;;;;5035894;28;20284;-80
2022/03/21 10:18:37;;;;;;;24.23;17.13;;;11.10;82.70;;;;;;5032665;28;20652;-88
2022/03/21 10:21:11;;;;;;;24.47;16.77;;;11.20;80.20;;;;;;5033253;28;20287;-87
2022/03/21 10:23:37;;;;;;;22.50;17.23;;;11.30;78.60;;;;;;5032492;28;20800;-83
2022/03/21 10:26:24;;;;;;;22.43;16.53;;;11.30;78.30;;;;;;5032935;28;20316;-85
2022/03/21 10:28:56;;;;;;;21.83;16.30;;;11.20;73.70;;;;;;5033085;28;20272;-88
2022/03/21 10:31:42;;;;;;;21.33;16.47;;;11.20;75.90;;;;;;5031927;28;20339;-81
2022/03/21 10:34:16;;;;;;;25.50;17.30;;;11.10;70.50;;;;;;5032640;28;20296;-76
2022/03/21 10:37:04;;;;;;;25.65;17.35;;;11.10;73.00;;;;;;5032650;28;20299;-77
2022/03/21 10:39:32;;;;;;;22.13;15.97;;;11.10;70.80;;;;;;5031329;28;20509;-73
2022/03/21 10:42:00;;;;;;;23.43;15.87;;;11.10;71.40;;;;;;5031417;28;20288;-78
2022/03/21 10:44:27;;;;;;;20.97;15.67;;;11.10;70.00;;;;;;5031404;28;20298;-78
2022/03/21 10:46:54;;;;;;;21.43;15.40;;;11.00;69.10;;;;;;5032656;28;20341;-78
2022/03/21 10:49:49;;;;;;;20.53;15.17;;;10.90;68.00;;;;;;5032546;28;20314;-78
2022/03/21 10:52:16;;;;;;;26.67;16.87;;;11.00;65.30;;;;;;5015219;28;20307;-78
2022/03/21 10:54:48;;;;;;;22.47;16.57;;;11.00;67.50;;;;;;5032319;28;20376;-78
2022/03/21 10:57:30;;;;;;;19.40;15.30;;;11.10;66.60;;;;;;5032219;28;20874;-78
2022/03/21 11:00:15;;;;;;;19.60;15.50;;;11.10;65.00;;;;;;5032611;28;20288;-78
2022/03/21 11:02:54;;;;;;;19.07;15.67;;;11.00;65.10;;;;;;5032134;28;20303;-78
2022/03/21 11:05:20;;;;;;;20.97;14.67;;;11.00;66.30;;;;;;5032093;28;20626;-79
2022/03/21 11:07:47;;;;;;;21.80;15.33;;;11.00;66.50;;;;;;5035958;28;20368;-78
2022/03/21 11:10:13;;;;;;;22.73;16.90;;;11.00;65.60;;;;;;5035105;28;20343;-79
2022/03/21 11:12:42;;;;;;;20.27;15.27;;;11.00;65.80;;;;;;5035906;28;20288;-79
2022/03/21 11:15:09;;;;;;;20.10;15.67;;;11.00;65.70;;;;;;5036151;28;20359;-79
2022/03/21 11:17:36;;;;;;;19.90;14.33;;;11.00;66.10;;;;;;5035880;28;20280;-78
2022/03/21 11:20:07;;;;;;;23.97;16.07;;;11.10;65.20;;;;;;5036055;28;20326;-79
2022/03/21 11:22:34;;;;;;;18.63;13.63;;;11.10;64.80;;;;;;5035953;28;20303;-78
2022/03/21 11:25:09;;;;;;;26.03;16.17;;;11.10;64.60;;;;;;5035996;28;20682;-79
2022/03/21 11:28:05;;;;;;;21.20;15.70;;;11.10;64.80;;;;;;5035744;28;20284;-79
2022/03/21 11:30:43;;;;;;;19.50;14.60;;;11.10;64.50;;;;;;5035778;28;20115;-78
2022/03/21 11:33:47;;;;;;;20.03;15.57;;;11.10;64.30;;;;;;5035044;28;20672;-78
2022/03/21 11:36:13;;;;;;;19.13;14.03;;;11.10;64.90;;;;;;5035866;28;20295;-79
2022/03/21 11:38:46;;;;;;;19.13;14.53;;;11.20;64.10;;;;;;5035443;28;20287;-78
2022/03/21 11:41:22;;;;;;;20.03;14.90;;;11.20;63.30;;;;;;5035842;28;20276;-78
2022/03/21 11:44:03;;;;;;;21.50;15.47;;;11.30;63.00;;;;;;5035011;28;20833;-79
2022/03/21 11:46:31;;;;;;;21.20;16.20;;;11.30;63.30;;;;;;5035654;28;20296;-79
2022/03/21 11:49:05;;;;;;;20.27;14.57;;;11.40;63.90;;;;;;5033743;28;20759;-79
2022/03/21 11:51:39;;;;;;;23.13;15.97;;;11.40;63.50;;;;;;5035433;28;20374;-79
2022/03/21 11:54:07;;;;;;;18.90;14.53;;;11.40;63.20;;;;;;5035873;28;20276;-79
2022/03/21 11:56:44;;;;;;;23.80;15.17;;;11.50;62.90;;;;;;5035561;28;20280;-79
2022/03/21 11:59:32;;;;;;;23.63;15.83;;;11.60;61.80;;;;;;5035438;28;20284;-79
2022/03/21 12:02:22;;;;;;;22.20;14.97;;;11.60;61.40;;;;;;5035056;28;20284;-79
2022/03/21 12:04:59;;;;;;;21.53;15.47;;;11.60;62.20;;;;;;4998197;28;20288;-79
2022/03/21 12:07:25;;;;;;;19.73;14.47;;;11.60;61.60;;;;;;5035490;28;20316;-79
2022/03/21 12:09:52;;;;;;;19.50;14.87;;;11.60;61.70;;;;;;5034926;28;20755;-79
2022/03/21 12:12:22;;;;;;;20.33;14.50;;;11.50;61.10;;;;;;5035186;28;20056;-79
2022/03/21 12:14:56;;;;;;;20.83;14.80;;;11.60;61.10;;;;;;5034953;28;20674;-79
2022/03/21 12:17:22;;;;;;;19.97;15.10;;;11.70;59.80;;;;;;5038247;28;20283;-79
2022/03/21 12:19:51;;;;;;;19.27;14.83;;;11.70;60.40;;;;;;5034514;28;20280;-73
2022/03/21 12:22:29;;;;;;;19.40;15.20;;;11.70;60.40;;;;;;5034732;28;20433;-78
2022/03/21 12:25:17;;;;;;;19.77;15.20;;;11.60;60.50;;;;;;5034702;28;20291;-74
2022/03/21 12:27:44;;;;;;;24.20;16.70;;;11.60;60.10;;;;;;5034573;28;20280;-75
2022/03/21 12:30:30;;;;;;;21.17;15.60;;;11.60;60.70;;;;;;5034889;28;20307;-75
2022/03/21 12:32:57;;;;;;;21.47;15.23;;;11.60;60.70;;;;;;5033507;28;20375;-75
2022/03/21 12:35:32;;;;;;;23.47;15.53;;;11.60;60.70;;;;;;5034870;28;20284;-75
2022/03/21 12:38:02;;;;;;;19.75;13.85;;;11.60;59.80;;;;;;5033193;28;20367;-75
2022/03/21 12:40:28;;;;;;;19.97;15.30;;;11.70;59.80;;;;;;5033633;28;20045;-71
2022/03/21 12:42:57;;;;;;;19.67;14.90;;;11.70;59.40;;;;;;5033138;28;20810;-78
2022/03/21 12:45:24;;;;;;;18.87;14.83;;;11.80;59.60;;;;;;5033303;28;20098;-67
2022/03/21 12:47:50;;;;;;;18.00;14.13;;;11.80;59.40;;;;;;5034134;28;20320;-76
2022/03/21 12:50:22;;;;;;;22.27;16.43;;;11.80;59.80;;;;;;5033205;28;20315;-76
2022/03/21 12:52:59;;;;;;;21.33;16.13;;;11.80;59.20;;;;;;5032983;28;20327;-77
2022/03/21 12:55:26;;;;;;;20.70;15.90;;;11.70;59.20;;;;;;5034556;28;20289;-76
2022/03/21 12:57:58;;;;;;;22.73;15.27;;;11.70;59.40;;;;;;5033942;28;20390;-76
2022/03/21 13:00:26;;;;;;;22.23;14.73;;;11.70;58.90;;;;;;5034218;28;20340;-76
2022/03/21 13:02:56;;;;;;;19.87;14.97;;;11.70;59.10;;;;;;5032390;28;20426;-77
2022/03/21 13:11:02;;;;;;;23.53;15.97;;;11.90;57.90;;;;;;5033786;28;20296;-77
2022/03/21 13:13:41;;;;;;;23.27;16.13;;;11.90;57.70;;;;;;5034096;28;20379;-77
2022/03/21 13:16:09;;;;;;;25.70;15.40;;;11.90;57.60;;;;;;5033368;28;20807;-77